Time;durP1;ratioP1;P1;durP2;ratioP2;P2;SDS_P1;SDS_P2;PMS_P1;PMS_P2;Temp;Humidity;BMP_temperature;BMP_pressure;BME280_temperature;BME280_humidity;BME280_pressure;Samples;Min_cycle;Max_cycle;Signal;HPM_P1;HPM_P2
2022/07/13 00:01:08;;;;;;;1.40;1.00;;;16.90;86.30;;;;;;5046787;28;21016;-82
2022/07/13 00:03:36;;;;;;;1.23;0.97;;;16.80;87.60;;;;;;5046264;28;20675;-82
2022/07/13 00:06:03;;;;;;;1.57;1.10;;;16.90;84.90;;;;;;5046719;28;20626;-82
2022/07/13 00:08:30;;;;;;;1.80;0.97;;;17.00;85.40;;;;;;5046179;28;21246;-82
2022/07/13 00:10:58;;;;;;;2.10;1.33;;;16.90;86.10;;;;;;5046525;28;20606;-82
2022/07/13 00:13:26;;;;;;;0.97;0.87;;;16.90;85.60;;;;;;5045551;28;20606;-82
2022/07/13 00:15:55;;;;;;;1.17;1.07;;;16.90;85.90;;;;;;5046601;28;20653;-82
2022/07/13 00:18:22;;;;;;;0.97;0.90;;;16.80;84.50;;;;;;5046230;28;20601;-82
2022/07/13 00:20:50;;;;;;;1.30;1.20;;;16.70;84.30;;;;;;5048021;28;20621;-82
2022/07/13 00:23:19;;;;;;;1.03;0.73;;;16.70;84.60;;;;;;5049093;28;20602;-82
2022/07/13 00:25:48;;;;;;;1.33;1.10;;;16.40;86.10;;;;;;5050052;28;21021;-82
2022/07/13 00:28:16;;;;;;;1.77;1.40;;;16.40;86.70;;;;;;5050406;28;20606;-83
2022/07/13 00:30:44;;;;;;;1.37;1.27;;;16.40;85.10;;;;;;5050249;28;20688;-83
2022/07/13 00:33:11;;;;;;;2.10;1.97;;;16.50;85.30;;;;;;5050017;28;20606;-82
2022/07/13 00:35:38;;;;;;;1.50;1.37;;;16.50;85.80;;;;;;5050700;28;20737;-82
2022/07/13 00:38:06;;;;;;;0.93;0.93;;;16.60;85.20;;;;;;5050047;28;21254;-82
2022/07/13 00:40:34;;;;;;;1.47;0.83;;;16.60;86.20;;;;;;5049760;28;20729;-82
2022/07/13 00:43:01;;;;;;;1.10;1.03;;;16.30;86.50;;;;;;5049577;28;20610;-83
2022/07/13 00:45:31;;;;;;;3.77;1.00;;;16.30;86.90;;;;;;5049712;28;20606;-82
2022/07/13 00:47:59;;;;;;;1.50;1.17;;;16.20;88.00;;;;;;5049870;28;20745;-82
2022/07/13 00:50:27;;;;;;;1.10;1.00;;;16.30;88.50;;;;;;5049477;28;20618;-82
2022/07/13 00:52:55;;;;;;;3.83;1.00;;;16.30;87.10;;;;;;5049288;28;20743;-82
2022/07/13 00:55:24;;;;;;;0.70;0.70;;;16.30;86.40;;;;;;5049685;28;20638;-82
2022/07/13 00:57:51;;;;;;;0.90;0.90;;;16.30;85.90;;;;;;5049909;28;20989;-82
2022/07/13 01:00:18;;;;;;;1.70;1.47;;;16.30;86.90;;;;;;5049724;28;21272;-82
2022/07/13 01:02:47;;;;;;;1.10;1.00;;;16.30;89.10;;;;;;5048778;28;20626;-82
2022/07/13 01:05:15;;;;;;;0.97;0.60;;;16.30;89.70;;;;;;5048528;28;21328;-82
2022/07/13 01:07:43;;;;;;;1.37;1.07;;;16.20;88.80;;;;;;5048720;28;20630;-82
2022/07/13 01:10:11;;;;;;;0.90;0.90;;;16.20;88.80;;;;;;5049725;28;20717;-82
2022/07/13 01:12:40;;;;;;;1.00;0.93;;;16.30;87.60;;;;;;5048964;28;20610;-82
2022/07/13 01:15:08;;;;;;;0.83;0.83;;;16.30;87.30;;;;;;5049294;28;20610;-82
2022/07/13 01:17:37;;;;;;;0.70;0.70;;;16.30;86.90;;;;;;5049032;28;21330;-82
2022/07/13 01:20:08;;;;;;;1.30;1.20;;;16.30;86.70;;;;;;5049500;28;20634;-82
2022/07/13 01:22:39;;;;;;;1.10;1.00;;;16.30;86.70;;;;;;5047411;28;21027;-82
2022/07/13 01:25:10;;;;;;;1.17;1.17;;;16.30;86.70;;;;;;5049023;28;20614;-82
2022/07/13 01:27:39;;;;;;;0.60;0.60;;;16.30;85.90;;;;;;5048966;28;21038;-82
2022/07/13 01:30:09;;;;;;;0.90;0.90;;;16.40;85.70;;;;;;5049079;28;21122;-82
2022/07/13 01:32:45;;;;;;;1.53;1.27;;;16.50;86.10;;;;;;5048092;28;20617;-84
2022/07/13 01:35:12;;;;;;;1.50;1.40;;;16.50;85.90;;;;;;5048660;28;20951;-82
2022/07/13 01:37:42;;;;;;;1.63;1.07;;;16.50;85.70;;;;;;5048507;28;20606;-81
2022/07/13 01:40:11;;;;;;;2.30;1.47;;;16.50;87.70;;;;;;5049041;28;20709;-81
2022/07/13 01:42:42;;;;;;;2.13;0.93;;;16.40;87.10;;;;;;5048065;28;20609;-82
2022/07/13 01:45:11;;;;;;;0.93;0.77;;;16.30;86.90;;;;;;5048730;28;20614;-82
2022/07/13 01:47:40;;;;;;;5.00;1.47;;;16.30;86.80;;;;;;5048718;28;20618;-83
2022/07/13 01:50:10;;;;;;;1.77;1.00;;;16.20;88.20;;;;;;5048819;28;20615;-83
2022/07/13 01:52:37;;;;;;;0.90;0.90;;;16.20;87.90;;;;;;5048199;28;20622;-81
2022/07/13 01:55:04;;;;;;;1.23;1.10;;;16.20;87.50;;;;;;5048076;28;20599;-83
2022/07/13 01:57:34;;;;;;;5.50;1.60;;;16.30;87.30;;;;;;5048572;28;20948;-83
2022/07/13 02:00:03;;;;;;;0.90;0.90;;;16.30;87.70;;;;;;5048492;28;20626;-83
2022/07/13 02:02:30;;;;;;;1.40;1.30;;;16.40;88.70;;;;;;5048020;28;20591;-82
2022/07/13 02:04:57;;;;;;;1.40;1.30;;;16.40;89.20;;;;;;5048424;28;20602;-82
2022/07/13 02:07:24;;;;;;;1.10;1.00;;;16.40;87.90;;;;;;5047859;28;20828;-82
2022/07/13 02:09:51;;;;;;;1.13;1.00;;;16.30;87.90;;;;;;5048542;28;20681;-83
2022/07/13 02:12:18;;;;;;;0.87;0.87;;;16.20;88.40;;;;;;5048082;28;20633;-82
2022/07/13 02:14:46;;;;;;;0.93;0.90;;;16.20;88.90;;;;;;5048122;28;20716;-83
2022/07/13 02:17:13;;;;;;;1.13;1.03;;;16.20;89.00;;;;;;5048423;28;20628;-83
2022/07/13 02:19:40;;;;;;;1.03;1.03;;;16.30;88.80;;;;;;5039918;28;21325;-83
2022/07/13 02:22:08;;;;;;;1.00;1.00;;;16.30;89.00;;;;;;5031267;28;20610;-82
2022/07/13 02:24:35;;;;;;;1.30;1.10;;;16.30;88.80;;;;;;5042411;28;20753;-83
2022/07/13 02:27:02;;;;;;;1.10;1.00;;;16.40;88.70;;;;;;5045202;28;21374;-83
2022/07/13 02:29:50;;;;;;;0.73;0.73;;;16.40;88.30;;;;;;5047619;28;21232;-83
2022/07/13 02:32:21;;;;;;;0.90;0.83;;;16.50;87.70;;;;;;5047515;28;20621;-83
2022/07/13 02:34:49;;;;;;;0.87;0.87;;;16.50;88.00;;;;;;5047973;28;21008;-83
2022/07/13 02:37:16;;;;;;;0.70;0.70;;;16.50;87.90;;;;;;5047923;28;20622;-83
2022/07/13 02:39:43;;;;;;;1.60;0.90;;;16.60;89.30;;;;;;5047523;28;20961;-83
2022/07/13 02:42:10;;;;;;;1.10;1.10;;;16.60;88.30;;;;;;5047216;28;20648;-80
2022/07/13 02:44:37;;;;;;;1.53;1.07;;;16.60;88.20;;;;;;5046979;28;20606;-83
2022/07/13 02:47:05;;;;;;;1.10;0.90;;;16.60;87.60;;;;;;5047442;28;20672;-83
2022/07/13 02:49:32;;;;;;;2.40;1.33;;;16.60;87.50;;;;;;5047549;28;20688;-82
2022/07/13 02:51:59;;;;;;;2.10;1.03;;;16.60;87.10;;;;;;5047608;28;20614;-82
2022/07/13 02:54:26;;;;;;;1.00;0.90;;;16.70;86.60;;;;;;5046927;28;20657;-83
2022/07/13 02:56:52;;;;;;;1.20;0.93;;;16.70;86.50;;;;;;5047314;28;20643;-83
2022/07/13 02:59:19;;;;;;;0.90;0.80;;;16.60;87.90;;;;;;5047574;28;20610;-83
2022/07/13 03:01:46;;;;;;;1.30;1.20;;;16.60;89.70;;;;;;5047120;28;20651;-83
2022/07/13 03:04:14;;;;;;;0.73;0.73;;;16.60;89.80;;;;;;5046994;28;20605;-83
2022/07/13 03:06:45;;;;;;;1.60;0.90;;;16.40;89.90;;;;;;5046486;28;20646;-82
2022/07/13 03:09:11;;;;;;;1.30;1.20;;;16.30;90.10;;;;;;5047260;28;20630;-83
2022/07/13 03:11:38;;;;;;;1.83;1.20;;;16.20;90.50;;;;;;5046960;28;20614;-83
2022/07/13 03:14:05;;;;;;;0.93;0.93;;;16.10;90.90;;;;;;5046945;28;20610;-83
2022/07/13 03:16:32;;;;;;;1.23;1.13;;;15.90;91.90;;;;;;5046756;28;20615;-81
2022/07/13 03:19:00;;;;;;;1.30;1.23;;;15.80;92.00;;;;;;5047149;28;20621;-81
2022/07/13 03:21:28;;;;;;;0.97;0.97;;;15.80;92.40;;;;;;5047567;28;20610;-83
2022/07/13 03:23:55;;;;;;;1.80;1.27;;;15.80;92.50;;;;;;5046877;28;20633;-83
2022/07/13 03:26:22;;;;;;;1.13;1.03;;;15.80;92.00;;;;;;5047504;28;20660;-82
2022/07/13 03:28:49;;;;;;;1.13;1.07;;;15.70;92.70;;;;;;5047023;28;20618;-83
2022/07/13 03:31:16;;;;;;;1.27;1.20;;;15.50;93.30;;;;;;5047253;28;20630;-82
2022/07/13 03:33:43;;;;;;;2.30;1.10;;;15.50;93.60;;;;;;5046268;28;21259;-83
2022/07/13 03:36:10;;;;;;;1.57;1.23;;;15.50;93.30;;;;;;5047279;28;20633;-83
2022/07/13 03:38:38;;;;;;;0.87;0.87;;;15.50;93.70;;;;;;5046777;28;20645;-82
2022/07/13 03:41:05;;;;;;;1.73;1.40;;;15.40;93.60;;;;;;5047247;28;20618;-83
2022/07/13 03:43:32;;;;;;;0.93;0.90;;;15.40;94.10;;;;;;5046775;28;20705;-83
2022/07/13 03:45:59;;;;;;;1.80;1.33;;;15.40;94.60;;;;;;5047457;28;20721;-83
2022/07/13 03:48:26;;;;;;;0.93;0.80;;;15.40;94.50;;;;;;5046508;28;20637;-82
2022/07/13 03:50:53;;;;;;;1.53;1.10;;;15.40;94.10;;;;;;5047358;28;20658;-82
2022/07/13 03:53:20;;;;;;;1.13;1.03;;;15.50;93.70;;;;;;5046542;28;20733;-82
2022/07/13 03:55:48;;;;;;;0.80;0.80;;;15.50;93.50;;;;;;5050057;28;20646;-83
2022/07/13 03:58:15;;;;;;;1.50;1.30;;;15.50;93.30;;;;;;5050732;28;20743;-83
2022/07/13 04:00:42;;;;;;;0.90;0.90;;;15.50;93.30;;;;;;5050984;28;20618;-82
2022/07/13 04:03:09;;;;;;;0.90;0.77;;;15.50;94.00;;;;;;5050392;28;20657;-82
2022/07/13 04:05:36;;;;;;;0.73;0.73;;;15.40;94.30;;;;;;5050459;28;20653;-83
2022/07/13 04:08:03;;;;;;;1.03;0.93;;;15.40;94.50;;;;;;5049918;28;20661;-82
2022/07/13 04:10:30;;;;;;;1.10;1.00;;;15.40;94.70;;;;;;5047790;28;20618;-83
2022/07/13 04:12:58;;;;;;;1.53;1.13;;;15.40;94.80;;;;;;5048077;28;20614;-83
2022/07/13 04:15:25;;;;;;;1.23;1.13;;;15.40;94.70;;;;;;5048811;28;20653;-82
2022/07/13 04:17:52;;;;;;;0.87;0.87;;;15.50;94.60;;;;;;5048795;28;21265;-83
2022/07/13 04:20:19;;;;;;;1.40;1.17;;;15.50;94.70;;;;;;5048242;28;21349;-83
2022/07/13 04:22:46;;;;;;;1.50;1.40;;;15.70;94.50;;;;;;5048385;28;20625;-83
2022/07/13 04:25:12;;;;;;;1.03;1.00;;;15.80;94.20;;;;;;5049251;28;20618;-82
2022/07/13 04:27:39;;;;;;;0.97;0.97;;;15.90;93.30;;;;;;5050417;28;20689;-82
2022/07/13 04:30:09;;;;;;;1.73;1.50;;;16.10;93.00;;;;;;5050447;28;20606;-82
2022/07/13 04:32:36;;;;;;;0.93;0.93;;;16.20;92.60;;;;;;5049722;28;20626;-82
2022/07/13 04:35:03;;;;;;;1.43;0.93;;;16.40;92.60;;;;;;5050596;28;20683;-83
2022/07/13 04:37:30;;;;;;;1.50;1.23;;;16.50;92.00;;;;;;5050118;28;20737;-82
2022/07/13 04:39:56;;;;;;;0.97;0.93;;;16.60;91.80;;;;;;5050927;28;20622;-83
2022/07/13 04:42:23;;;;;;;1.40;1.30;;;16.70;91.60;;;;;;5049703;28;20729;-83
2022/07/13 04:44:50;;;;;;;1.47;1.37;;;16.70;91.60;;;;;;5050428;28;20626;-82
2022/07/13 04:47:18;;;;;;;1.50;1.40;;;16.80;91.90;;;;;;5049983;28;20643;-83
2022/07/13 04:49:45;;;;;;;1.30;1.00;;;16.90;91.50;;;;;;5049810;28;20722;-82
2022/07/13 04:52:12;;;;;;;1.33;1.10;;;16.90;91.10;;;;;;5049127;28;20730;-82
2022/07/13 04:54:39;;;;;;;1.67;1.37;;;16.80;91.00;;;;;;5050294;28;20609;-83
2022/07/13 04:57:09;;;;;;;0.90;0.90;;;16.90;91.00;;;;;;5049671;28;20614;-83
2022/07/13 04:59:35;;;;;;;1.67;0.93;;;16.90;91.00;;;;;;5048616;28;20712;-82
2022/07/13 05:02:02;;;;;;;1.57;1.10;;;17.00;90.80;;;;;;5049715;28;20691;-82
2022/07/13 05:04:30;;;;;;;1.13;1.10;;;17.10;91.20;;;;;;5049101;28;20624;-82
2022/07/13 05:06:57;;;;;;;1.03;0.87;;;17.10;91.20;;;;;;5049322;28;20689;-83
2022/07/13 05:09:24;;;;;;;0.73;0.73;;;17.10;91.50;;;;;;5050174;28;20614;-83
2022/07/13 05:11:52;;;;;;;0.87;0.87;;;17.10;91.60;;;;;;5049668;28;20622;-82
2022/07/13 05:14:18;;;;;;;0.80;0.80;;;17.20;91.50;;;;;;5049004;28;20626;-82
2022/07/13 05:16:45;;;;;;;2.00;1.17;;;17.50;91.70;;;;;;5049486;28;20686;-82
2022/07/13 05:19:12;;;;;;;1.30;1.20;;;17.60;91.00;;;;;;5047679;28;21176;-80
2022/07/13 05:21:42;;;;;;;1.23;1.13;;;17.70;91.00;;;;;;5047454;28;20637;-82
2022/07/13 05:24:09;;;;;;;0.97;0.97;;;17.80;90.50;;;;;;5048940;28;21372;-80
2022/07/13 05:26:36;;;;;;;1.30;1.20;;;17.90;90.70;;;;;;5049460;28;20740;-81
2022/07/13 05:29:04;;;;;;;1.00;0.87;;;17.90;90.20;;;;;;5049502;28;20601;-81
2022/07/13 05:31:31;;;;;;;1.53;1.43;;;18.00;90.00;;;;;;5048757;28;20648;-81
2022/07/13 05:33:58;;;;;;;0.97;0.97;;;18.10;89.80;;;;;;5048683;28;20618;-81
2022/07/13 05:36:25;;;;;;;1.13;1.03;;;18.20;90.10;;;;;;5048958;28;20610;-82
2022/07/13 05:38:56;;;;;;;2.30;1.80;;;18.30;90.30;;;;;;5048949;28;20729;-82
2022/07/13 05:41:23;;;;;;;1.23;1.13;;;18.40;89.90;;;;;;5048656;28;21206;-80
2022/07/13 05:43:50;;;;;;;3.47;1.40;;;18.40;89.50;;;;;;5048655;28;20614;-80
2022/07/13 05:46:17;;;;;;;2.77;1.53;;;18.50;89.30;;;;;;5048518;28;20722;-81
2022/07/13 05:48:44;;;;;;;1.20;1.10;;;18.60;89.20;;;;;;5048511;28;20654;-80
2022/07/13 05:51:11;;;;;;;0.90;0.90;;;18.80;89.20;;;;;;5048665;28;20767;-81
2022/07/13 05:53:37;;;;;;;1.20;1.00;;;18.90;87.20;;;;;;5048129;28;20638;-81
2022/07/13 05:56:06;;;;;;;1.07;0.90;;;18.90;85.20;;;;;;5048635;28;20716;-81
2022/07/13 05:58:33;;;;;;;0.70;0.57;;;19.10;84.60;;;;;;5048641;28;20713;-81
2022/07/13 06:01:00;;;;;;;1.50;1.40;;;19.20;84.80;;;;;;5048311;28;20680;-83
2022/07/13 06:03:27;;;;;;;1.47;1.20;;;19.20;84.60;;;;;;5049094;28;20633;-82
2022/07/13 06:05:54;;;;;;;0.90;0.90;;;19.30;83.80;;;;;;5055636;28;20618;-82
2022/07/13 06:08:23;;;;;;;1.30;1.20;;;19.40;83.90;;;;;;5055203;28;20728;-82
2022/07/13 06:10:52;;;;;;;1.63;1.13;;;19.40;84.40;;;;;;5056246;28;20660;-82
2022/07/13 06:13:20;;;;;;;4.37;1.70;;;19.40;85.20;;;;;;5052747;28;20658;-83
2022/07/13 06:15:47;;;;;;;1.67;1.47;;;19.50;86.30;;;;;;5051950;28;21017;-83
2022/07/13 06:18:14;;;;;;;1.80;1.30;;;19.60;86.90;;;;;;5048971;28;20694;-83
2022/07/13 06:20:41;;;;;;;0.93;0.90;;;19.60;85.40;;;;;;5056915;28;20718;-83
2022/07/13 06:23:10;;;;;;;3.13;1.00;;;19.70;85.40;;;;;;5052743;28;20630;-83
2022/07/13 06:25:37;;;;;;;1.10;1.00;;;19.70;85.10;;;;;;5049784;28;21095;-83
2022/07/13 06:28:05;;;;;;;1.40;1.30;;;19.80;84.20;;;;;;5056643;28;20745;-83
2022/07/13 06:30:34;;;;;;;1.37;1.27;;;19.90;84.50;;;;;;5059053;28;20951;-83
2022/07/13 06:33:01;;;;;;;1.30;1.20;;;20.00;84.00;;;;;;5054687;28;20674;-83
2022/07/13 06:35:29;;;;;;;0.73;0.73;;;20.00;84.20;;;;;;5053510;28;20717;-83
2022/07/13 06:37:56;;;;;;;1.07;1.03;;;20.00;84.60;;;;;;5051604;28;20622;-83
2022/07/13 06:40:23;;;;;;;1.40;1.30;;;20.10;84.40;;;;;;5050942;28;20753;-83
2022/07/13 06:42:50;;;;;;;2.40;1.80;;;20.20;83.50;;;;;;5054418;28;20633;-82
2022/07/13 06:45:17;;;;;;;0.90;0.90;;;20.20;83.20;;;;;;5056062;28;20633;-82
2022/07/13 06:47:46;;;;;;;0.97;0.80;;;20.40;81.80;;;;;;5053143;28;21004;-83
2022/07/13 06:50:12;;;;;;;1.27;1.17;;;20.40;81.10;;;;;;5051380;28;20737;-82
2022/07/13 06:52:40;;;;;;;1.10;1.10;;;20.50;82.10;;;;;;5048885;28;20684;-83
2022/07/13 06:55:08;;;;;;;3.70;1.80;;;20.50;81.80;;;;;;5053132;28;20632;-83
2022/07/13 06:57:35;;;;;;;1.50;1.20;;;20.60;82.00;;;;;;5052409;28;20621;-83
2022/07/13 07:00:02;;;;;;;1.30;1.20;;;20.80;82.00;;;;;;5055570;28;20653;-83
2022/07/13 07:02:29;;;;;;;1.10;1.10;;;20.80;82.40;;;;;;5052137;28;20656;-84
2022/07/13 07:04:58;;;;;;;1.20;1.00;;;21.00;81.20;;;;;;5055239;28;20710;-83
2022/07/13 07:07:25;;;;;;;1.80;1.50;;;21.00;82.00;;;;;;5050888;28;20745;-83
2022/07/13 07:09:52;;;;;;;5.57;1.80;;;21.10;80.30;;;;;;5055761;28;21321;-83
2022/07/13 07:12:19;;;;;;;8.00;2.70;;;21.20;80.60;;;;;;5052951;28;20684;-83
2022/07/13 07:14:46;;;;;;;1.30;1.20;;;21.30;80.60;;;;;;5048820;28;20649;-83
2022/07/13 07:17:13;;;;;;;0.80;0.80;;;21.30;80.30;;;;;;5057599;28;20675;-83
2022/07/13 07:19:40;;;;;;;1.30;1.10;;;21.50;81.30;;;;;;5051928;28;20633;-83
2022/07/13 07:22:08;;;;;;;0.77;0.73;;;21.60;78.90;;;;;;5055443;28;20744;-82
2022/07/13 07:24:35;;;;;;;1.60;1.00;;;21.80;78.60;;;;;;5049737;28;20668;-83
2022/07/13 07:27:05;;;;;;;0.93;0.90;;;21.90;77.70;;;;;;5056968;28;20713;-84
2022/07/13 07:29:32;;;;;;;0.83;0.83;;;22.00;77.70;;;;;;5056230;28;20621;-83
2022/07/13 07:31:59;;;;;;;0.77;0.60;;;22.20;76.70;;;;;;5055033;28;20716;-83
2022/07/13 07:34:26;;;;;;;0.90;0.90;;;22.20;76.20;;;;;;5058141;28;20628;-84
2022/07/13 07:36:53;;;;;;;2.93;0.87;;;22.40;73.30;;;;;;5054618;28;21038;-83
2022/07/13 07:39:21;;;;;;;1.00;0.90;;;22.50;71.30;;;;;;5054767;28;20697;-83
2022/07/13 07:41:48;;;;;;;0.80;0.70;;;22.70;69.90;;;;;;5056861;28;20626;-83
2022/07/13 07:44:16;;;;;;;0.83;0.80;;;22.90;70.60;;;;;;5031635;28;20623;-83
2022/07/13 07:46:42;;;;;;;0.77;0.77;;;23.00;68.10;;;;;;5050218;28;20657;-83
2022/07/13 07:49:09;;;;;;;2.27;0.97;;;23.20;69.30;;;;;;5052760;28;20665;-83
2022/07/13 07:51:37;;;;;;;0.67;0.67;;;23.60;66.90;;;;;;5060565;28;21277;-83
2022/07/13 07:54:05;;;;;;;1.43;1.37;;;23.70;66.60;;;;;;5060583;28;20696;-83
2022/07/13 07:56:34;;;;;;;0.60;0.60;;;24.00;65.70;;;;;;5059587;28;20967;-84
2022/07/13 07:59:01;;;;;;;1.23;1.13;;;24.10;64.30;;;;;;5058109;28;21008;-84
2022/07/13 08:01:29;;;;;;;0.70;0.70;;;24.00;63.90;;;;;;5057209;28;20704;-84
2022/07/13 08:03:56;;;;;;;0.93;0.93;;;23.90;64.80;;;;;;5068484;28;20625;-83
2022/07/13 08:06:23;;;;;;;0.77;0.77;;;24.00;62.80;;;;;;5058654;28;20683;-83
2022/07/13 08:08:50;;;;;;;0.93;0.93;;;24.20;63.50;;;;;;5057073;28;20654;-83
2022/07/13 08:11:18;;;;;;;2.30;0.93;;;24.30;63.20;;;;;;5055766;28;20624;-83
2022/07/13 08:13:49;;;;;;;0.87;0.87;;;24.50;65.10;;;;;;5070872;28;20629;-83
2022/07/13 08:16:17;;;;;;;1.20;1.10;;;24.50;60.30;;;;;;5066979;28;20676;-83
2022/07/13 08:18:44;;;;;;;0.70;0.70;;;24.50;60.50;;;;;;5059626;28;20682;-84
2022/07/13 08:21:11;;;;;;;0.60;0.60;;;24.60;62.90;;;;;;5052028;28;20634;-83
2022/07/13 08:23:54;;;;;;;0.60;0.60;;;24.60;58.30;;;;;;5062080;28;20725;-84
2022/07/13 08:26:23;;;;;;;1.00;0.90;;;24.70;58.30;;;;;;5064556;28;20761;-84
2022/07/13 08:28:52;;;;;;;0.70;0.70;;;24.80;59.80;;;;;;5060246;28;20219;-84
2022/07/13 08:31:21;;;;;;;1.10;1.10;;;24.80;58.80;;;;;;5054401;28;20645;-84
2022/07/13 08:39:17;;;;;;;0.90;0.87;;;24.90;57.90;;;;;;5030281;28;20599;-83
2022/07/13 08:41:44;;;;;;;0.80;0.80;;;24.90;57.20;;;;;;5043494;28;20621;-83
2022/07/13 08:44:12;;;;;;;0.60;0.60;;;25.00;58.40;;;;;;5031403;28;21255;-83
2022/07/13 08:46:40;;;;;;;0.63;0.63;;;25.00;57.70;;;;;;5030591;28;20614;-83
2022/07/13 08:49:08;;;;;;;0.80;0.80;;;25.20;57.00;;;;;;5062334;28;20665;-83
2022/07/13 08:51:35;;;;;;;0.77;0.77;;;25.50;56.50;;;;;;5064949;28;20653;-83
2022/07/13 08:54:04;;;;;;;0.70;0.70;;;25.50;56.90;;;;;;5070463;28;20683;-83
2022/07/13 08:56:32;;;;;;;0.77;0.77;;;25.70;56.20;;;;;;5060917;28;20629;-83
2022/07/13 08:58:59;;;;;;;0.63;0.63;;;25.70;56.80;;;;;;5056537;28;21083;-84
2022/07/13 09:01:27;;;;;;;1.20;0.70;;;25.60;56.80;;;;;;5048654;28;20658;-83
2022/07/13 09:07:17;;;;;;;0.60;0.60;;;25.80;56.80;;;;;;5045766;28;20621;-84
2022/07/13 09:09:44;;;;;;;0.73;0.73;;;26.00;56.20;;;;;;5050574;28;20778;-84
2022/07/13 09:12:24;;;;;;;1.13;1.03;;;26.00;55.60;;;;;;5050190;28;20630;-83
2022/07/13 09:14:53;;;;;;;0.90;0.90;;;26.20;54.90;;;;;;5064237;28;21098;-84
2022/07/13 09:17:40;;;;;;;0.90;0.80;;;26.10;56.70;;;;;;5065374;28;20621;-84
2022/07/13 09:20:21;;;;;;;0.90;0.80;;;26.20;54.60;;;;;;5050366;28;20634;-83
2022/07/13 09:22:49;;;;;;;0.87;0.87;;;26.30;54.70;;;;;;5069199;28;20625;-83
2022/07/13 09:25:32;;;;;;;0.70;0.70;;;26.30;54.50;;;;;;5056086;28;20610;-83
2022/07/13 09:28:02;;;;;;;3.23;3.03;;;26.40;54.40;;;;;;5042289;28;20642;-83
2022/07/13 09:30:29;;;;;;;0.53;0.53;;;26.30;55.00;;;;;;5047836;28;20634;-83
2022/07/13 09:32:59;;;;;;;0.73;0.73;;;26.40;55.30;;;;;;5060060;28;21029;-84
2022/07/13 09:35:44;;;;;;;1.03;0.70;;;26.40;54.90;;;;;;5056083;28;20675;-83
2022/07/13 09:38:27;;;;;;;0.73;0.73;;;26.30;53.80;;;;;;5069709;28;20674;-83
2022/07/13 09:40:54;;;;;;;0.70;0.70;;;26.50;53.90;;;;;;5042190;28;20637;-83
2022/07/13 09:46:12;;;;;;;0.67;0.67;;;27.10;50.90;;;;;;5049541;28;20713;-83
2022/07/13 09:48:40;;;;;;;0.50;0.50;;;27.10;51.40;;;;;;5048540;28;20748;-83
2022/07/13 09:51:07;;;;;;;0.90;0.90;;;27.10;52.30;;;;;;5045849;28;21168;-83
2022/07/13 09:53:36;;;;;;;0.57;0.50;;;27.10;50.20;;;;;;5042988;28;20630;-83
2022/07/13 09:56:06;;;;;;;0.60;0.60;;;27.20;48.40;;;;;;5050811;28;20650;-83
2022/07/13 09:58:35;;;;;;;0.63;0.63;;;27.30;50.00;;;;;;5056587;28;20630;-84
2022/07/13 10:01:04;;;;;;;0.77;0.77;;;27.60;49.50;;;;;;5054124;28;20730;-83
2022/07/13 10:03:31;;;;;;;0.70;0.70;;;27.60;49.70;;;;;;5057561;28;20630;-83
2022/07/13 10:06:01;;;;;;;0.73;0.73;;;27.60;49.30;;;;;;5051957;28;20669;-84
2022/07/13 10:08:29;;;;;;;0.60;0.60;;;27.80;48.80;;;;;;5050424;28;20706;-84
2022/07/13 10:10:56;;;;;;;0.60;0.60;;;27.90;50.20;;;;;;5039860;28;20623;-84
2022/07/13 10:13:24;;;;;;;0.60;0.57;;;28.00;51.50;;;;;;5068930;28;21045;-85
2022/07/13 10:15:51;;;;;;;0.80;0.80;;;28.20;47.90;;;;;;5057774;28;20672;-84
2022/07/13 10:18:22;;;;;;;0.57;0.57;;;28.20;47.30;;;;;;5058987;28;20666;-84
2022/07/13 10:20:54;;;;;;;0.80;0.60;;;28.40;47.20;;;;;;5034921;28;20617;-84
2022/07/13 10:23:35;;;;;;;0.70;0.70;;;28.50;45.10;;;;;;5047746;28;20626;-84
2022/07/13 10:26:03;;;;;;;1.43;1.30;;;28.50;45.40;;;;;;5048067;28;20637;-84
2022/07/13 10:28:29;;;;;;;0.70;0.70;;;28.70;45.60;;;;;;5047342;28;20630;-83
2022/07/13 10:30:56;;;;;;;0.80;0.60;;;28.80;43.30;;;;;;5048538;28;20630;-85
2022/07/13 10:33:25;;;;;;;0.67;0.67;;;28.80;44.50;;;;;;5048152;28;20618;-86
2022/07/13 10:35:54;;;;;;;0.40;0.40;;;28.90;44.20;;;;;;5047629;28;20632;-84
2022/07/13 10:38:26;;;;;;;0.60;0.60;;;29.10;40.80;;;;;;5048311;28;20610;-85
2022/07/13 10:41:18;;;;;;;0.50;0.47;;;29.30;40.90;;;;;;5047926;28;20683;-84
2022/07/13 10:43:53;;;;;;;0.80;0.63;;;29.20;40.80;;;;;;5048217;28;20662;-85
2022/07/13 10:46:48;;;;;;;0.50;0.50;;;29.20;41.70;;;;;;5048289;28;20621;-85
2022/07/13 10:49:34;;;;;;;0.60;0.60;;;29.30;41.40;;;;;;5047269;28;20654;-84
2022/07/13 10:52:48;;;;;;;0.70;0.60;;;29.20;43.20;;;;;;5048395;28;20629;-84
2022/07/13 10:55:39;;;;;;;0.67;0.67;;;29.50;44.30;;;;;;5048524;28;20637;-84
2022/07/13 10:58:44;;;;;;;0.93;0.90;;;29.90;44.00;;;;;;5045754;28;20776;-85
2022/07/13 11:01:42;;;;;;;1.60;0.70;;;30.20;40.90;;;;;;5028854;28;20623;-84
2022/07/13 11:04:12;;;;;;;0.77;0.77;;;30.30;40.80;;;;;;5044994;28;20633;-84
2022/07/13 11:06:40;;;;;;;0.30;0.30;;;30.80;39.50;;;;;;5066695;28;21187;-85
2022/07/13 11:09:15;;;;;;;0.93;0.80;;;31.00;40.60;;;;;;5055210;28;20642;-84
2022/07/13 11:11:50;;;;;;;0.60;0.60;;;31.10;38.40;;;;;;5060894;28;20736;-84
2022/07/13 11:14:50;;;;;;;0.60;0.60;;;31.20;39.20;;;;;;5056538;28;20728;-84
2022/07/13 11:17:23;;;;;;;1.37;0.47;;;31.20;38.10;;;;;;5066249;28;20636;-85
2022/07/13 11:19:57;;;;;;;0.50;0.50;;;31.50;39.10;;;;;;5056532;28;20631;-84
2022/07/13 11:22:25;;;;;;;0.40;0.40;;;31.70;38.00;;;;;;5054298;28;20608;-85
2022/07/13 11:25:14;;;;;;;0.60;0.60;;;31.90;36.90;;;;;;5067895;28;20725;-84
2022/07/13 11:27:47;;;;;;;1.17;0.70;;;32.30;37.40;;;;;;5047010;28;21046;-85
2022/07/13 11:30:19;;;;;;;0.60;0.60;;;32.40;36.30;;;;;;5040752;28;20664;-85
2022/07/13 11:32:47;;;;;;;0.80;0.63;;;32.80;35.10;;;;;;5047942;28;20696;-84
2022/07/13 11:35:14;;;;;;;0.50;0.50;;;32.70;35.30;;;;;;5046862;28;20662;-84
2022/07/13 11:37:44;;;;;;;0.40;0.40;;;32.70;35.00;;;;;;5048921;28;20629;-85
2022/07/13 11:40:25;;;;;;;0.70;0.70;;;32.70;34.30;;;;;;5055762;28;20622;-85
2022/07/13 11:42:53;;;;;;;0.50;0.50;;;32.70;36.10;;;;;;5053189;28;20652;-85
2022/07/13 11:45:26;;;;;;;0.63;0.53;;;32.30;35.90;;;;;;5054393;28;20629;-85
2022/07/13 11:47:57;;;;;;;0.90;0.90;;;32.60;35.50;;;;;;5047642;28;20740;-83
2022/07/13 11:50:38;;;;;;;0.60;0.60;;;32.90;35.50;;;;;;5052009;28;20692;-85
2022/07/13 11:53:05;;;;;;;0.73;0.73;;;33.60;35.30;;;;;;5053162;28;20704;-85
2022/07/13 11:55:33;;;;;;;0.40;0.40;;;33.70;33.20;;;;;;5050210;28;20991;-86
2022/07/13 11:58:00;;;;;;;0.53;0.40;;;34.30;33.60;;;;;;5048458;28;21253;-83
2022/07/13 12:00:28;;;;;;;0.40;0.40;;;34.70;32.00;;;;;;5047114;28;20662;-85
2022/07/13 12:02:56;;;;;;;0.43;0.43;;;35.00;31.40;;;;;;5051394;28;20631;-84
2022/07/13 12:05:24;;;;;;;0.50;0.50;;;36.00;30.60;;;;;;5057845;28;20641;-84
2022/07/13 12:08:01;;;;;;;0.60;0.40;;;36.50;29.90;;;;;;5050502;28;21123;-81
2022/07/13 12:10:29;;;;;;;0.40;0.40;;;37.30;31.10;;;;;;5051658;28;20652;-83
2022/07/13 12:12:56;;;;;;;0.40;0.40;;;37.90;29.40;;;;;;5048621;28;20253;-84
2022/07/13 12:15:23;;;;;;;0.40;0.40;;;38.40;28.70;;;;;;5048617;28;20241;-83
2022/07/13 12:17:52;;;;;;;1.48;0.60;;;38.80;28.80;;;;;;5051273;28;20286;-82
2022/07/13 12:20:20;;;;;;;0.40;0.40;;;39.40;28.00;;;;;;5048816;28;20225;-85
2022/07/13 12:22:51;;;;;;;0.50;0.50;;;39.80;28.10;;;;;;5052284;28;20273;-84
2022/07/13 12:25:26;;;;;;;0.40;0.40;;;39.70;28.00;;;;;;5053628;28;20209;-84
2022/07/13 12:27:53;;;;;;;0.40;0.40;;;38.80;28.30;;;;;;5070429;28;20631;-84
2022/07/13 12:30:21;;;;;;;0.40;0.40;;;37.90;28.10;;;;;;5052981;28;20244;-83
2022/07/13 12:33:00;;;;;;;0.50;0.50;;;37.60;28.00;;;;;;5057296;28;20203;-83
2022/07/13 12:35:28;;;;;;;0.30;0.30;;;36.50;29.30;;;;;;5051271;28;20203;-83
2022/07/13 12:37:57;;;;;;;0.60;0.60;;;35.50;29.60;;;;;;5050686;28;20675;-83
2022/07/13 12:40:41;;;;;;;0.40;0.40;;;35.20;29.80;;;;;;5049845;28;20721;-83
2022/07/13 12:43:17;;;;;;;0.50;0.40;;;34.90;30.20;;;;;;5051020;28;21049;-85
2022/07/13 12:45:45;;;;;;;0.50;0.30;;;34.50;32.20;;;;;;5050865;28;20721;-85
2022/07/13 12:48:15;;;;;;;0.47;0.47;;;34.10;30.10;;;;;;5066544;28;20636;-85
2022/07/13 12:50:42;;;;;;;0.40;0.30;;;34.00;32.20;;;;;;5051150;28;20662;-85
2022/07/13 12:53:10;;;;;;;0.60;0.60;;;34.00;31.80;;;;;;5052465;28;20630;-85
2022/07/13 12:55:56;;;;;;;0.50;0.50;;;33.90;33.60;;;;;;5051222;28;20630;-85
2022/07/13 12:58:41;;;;;;;0.50;0.40;;;33.80;34.80;;;;;;5052784;28;21075;-85
2022/07/13 13:01:08;;;;;;;0.60;0.60;;;33.70;32.80;;;;;;5049922;28;20629;-84
2022/07/13 13:03:37;;;;;;;0.40;0.40;;;33.60;33.90;;;;;;5051216;28;20732;-85
2022/07/13 13:06:04;;;;;;;0.50;0.50;;;33.50;34.30;;;;;;5050403;28;20630;-85
2022/07/13 13:08:31;;;;;;;0.60;0.60;;;33.50;33.30;;;;;;5064007;28;20696;-85
2022/07/13 13:10:58;;;;;;;0.77;0.70;;;33.40;33.30;;;;;;5051551;28;20777;-86